createdAt,value
2019-06-07T00:01:04.769Z,99.90
2019-06-07T00:03:31.016Z,99.90
2019-06-07T00:05:57.232Z,99.90
2019-06-07T00:08:28.411Z,99.90
2019-06-07T00:10:51.748Z,99.90
2019-06-07T00:13:20.316Z,99.90
2019-06-07T00:15:46.298Z,99.90
2019-06-07T00:18:15.057Z,99.90
2019-06-07T00:20:40.664Z,99.90
2019-06-07T00:23:08.610Z,99.90
2019-06-07T00:25:35.561Z,99.90
2019-06-07T00:28:01.792Z,99.90
2019-06-07T00:30:42.212Z,99.90
2019-06-07T00:32:56.385Z,99.90
2019-06-07T00:35:23.143Z,99.90
2019-06-07T00:37:49.382Z,99.90
2019-06-07T00:40:21.042Z,99.90
2019-06-07T00:42:44.066Z,99.90
2019-06-07T00:45:11.387Z,99.90
2019-06-07T00:47:38.897Z,99.90
2019-06-07T00:50:06.414Z,99.90
2019-06-07T00:55:00.989Z,99.90
2019-06-07T00:57:27.325Z,99.90
2019-06-07T00:59:53.769Z,99.90
2019-06-07T01:02:24.265Z,99.90
2019-06-07T01:04:48.152Z,99.90
2019-06-07T01:07:17.054Z,99.90
2019-06-07T01:09:42.900Z,99.90
2019-06-07T01:12:29.074Z,99.90
2019-06-07T01:14:55.362Z,99.90
2019-06-07T01:17:40.054Z,99.90
2019-06-07T01:19:54.848Z,99.90
2019-06-07T01:22:23.483Z,99.90
2019-06-07T01:24:49.418Z,99.90
2019-06-07T01:27:17.061Z,99.90
2019-06-07T01:29:44.201Z,99.90
2019-06-07T01:32:10.441Z,99.90
2019-06-07T01:34:36.677Z,99.90
2019-06-07T01:37:02.921Z,99.90
2019-06-07T01:39:31.520Z,99.90
2019-06-07T01:41:57.709Z,99.90
2019-06-07T01:44:27.738Z,99.90
2019-06-07T01:46:52.398Z,99.90
2019-06-07T01:49:19.671Z,99.90
2019-06-07T01:51:46.849Z,99.90
2019-06-07T01:54:49.423Z,99.90
2019-06-07T01:56:41.234Z,99.90
2019-06-07T01:59:07.758Z,99.90
2019-06-07T02:01:35.103Z,99.90
2019-06-07T02:04:02.297Z,99.90
2019-06-07T02:06:31.996Z,99.90
2019-06-07T02:08:57.468Z,99.90
2019-06-07T02:11:24.305Z,99.90
2019-06-07T02:13:52.194Z,99.90
2019-06-07T02:16:19.321Z,99.90
2019-06-07T02:19:01.158Z,99.90
2019-06-07T02:21:13.905Z,99.90
2019-06-07T02:23:40.157Z,99.90
2019-06-07T02:26:06.401Z,99.90
2019-06-07T02:28:44.198Z,99.90
2019-06-07T02:31:00.915Z,99.90
2019-06-07T02:33:31.180Z,99.90
2019-06-07T02:35:55.409Z,99.90
2019-06-07T02:38:23.151Z,99.90
2019-06-07T02:40:49.886Z,99.90
2019-06-07T02:43:16.219Z,99.90
2019-06-07T02:45:43.730Z,99.90
2019-06-07T02:48:10.195Z,99.90
2019-06-07T02:50:38.761Z,99.90
2019-06-07T02:53:04.779Z,99.90
2019-06-07T02:55:34.652Z,99.90
2019-06-07T02:57:59.261Z,99.90
2019-06-07T03:00:55.405Z,99.90
2019-06-07T03:03:11.149Z,99.90
2019-06-07T03:05:40.878Z,99.90
2019-06-07T03:08:10.289Z,99.90
2019-06-07T03:10:39.847Z,99.90
2019-06-07T03:13:06.193Z,99.90
2019-06-07T03:15:44.656Z,99.90
2019-06-07T03:18:07.401Z,99.90
2019-06-07T03:20:35.100Z,99.90
2019-06-07T03:23:03.602Z,99.90
2019-06-07T03:25:37.335Z,99.90
2019-06-07T03:28:05.092Z,99.90
2019-06-07T03:30:52.219Z,99.90
2019-06-07T03:32:59.516Z,99.90
2019-06-07T03:35:28.477Z,99.90
2019-06-07T03:37:54.290Z,99.90
2019-06-07T03:40:20.541Z,99.90
2019-06-07T03:42:46.781Z,99.90
2019-06-07T03:45:13.029Z,99.90
2019-06-07T03:47:42.371Z,99.90
2019-06-07T03:50:07.916Z,99.90
2019-06-07T03:52:36.897Z,99.90
2019-06-07T03:55:04.607Z,99.90
2019-06-07T03:58:14.712Z,99.90
2019-06-07T03:59:59.088Z,99.90
2019-06-07T04:02:25.324Z,99.90
2019-06-07T04:04:51.669Z,99.90
2019-06-07T04:07:17.912Z,99.90
2019-06-07T04:09:44.148Z,99.90
2019-06-07T04:12:10.391Z,99.90
2019-06-07T04:14:38.484Z,99.90
2019-06-07T04:17:05.141Z,99.90
2019-06-07T04:19:32.352Z,99.90
2019-06-07T04:22:00.053Z,99.90
2019-06-07T04:24:26.702Z,99.90
2019-06-07T04:26:52.928Z,99.90
2019-06-07T04:29:56.839Z,99.90
2019-06-07T04:31:47.423Z,99.90
2019-06-07T04:34:14.082Z,99.90
2019-06-07T04:36:55.320Z,99.90
2019-06-07T04:39:08.856Z,99.90
2019-06-07T04:41:39.088Z,99.90
2019-06-07T04:44:05.663Z,99.90
2019-06-07T04:46:34.291Z,99.90
2019-06-07T04:49:03.137Z,99.90
2019-06-07T04:51:30.561Z,99.90
2019-06-07T04:53:59.226Z,99.90
2019-06-07T04:56:25.477Z,99.90
2019-06-07T04:58:51.704Z,99.90
2019-06-07T05:01:27.407Z,99.90
2019-06-07T05:03:46.089Z,99.90
2019-06-07T05:06:12.342Z,99.90
2019-06-07T05:08:42.520Z,99.90
2019-06-07T05:11:06.942Z,99.90
2019-06-07T05:13:36.719Z,99.90
2019-06-07T05:16:01.326Z,99.90
2019-06-07T05:18:27.571Z,99.90
2019-06-07T05:20:54.018Z,99.90
2019-06-07T05:23:59.945Z,99.90
2019-06-07T05:26:08.394Z,99.90
2019-06-07T05:28:35.754Z,99.90
2019-06-07T05:31:05.599Z,99.90
2019-06-07T05:33:31.794Z,99.90
2019-06-07T05:35:59.390Z,99.90
2019-06-07T05:38:25.634Z,99.90
2019-06-07T05:40:51.877Z,99.90
2019-06-07T05:43:27.068Z,99.90
2019-06-07T05:45:53.712Z,99.90
2019-06-07T05:48:20.047Z,99.90
2019-06-07T05:50:55.975Z,99.90
2019-06-07T05:53:14.648Z,99.90
2019-06-07T05:55:44.175Z,99.90
2019-06-07T05:58:09.099Z,99.90
2019-06-07T06:00:36.868Z,99.90
2019-06-07T06:03:06.068Z,99.90
2019-06-07T06:05:37.623Z,99.90
2019-06-07T06:08:01.113Z,99.90
2019-06-07T06:10:27.353Z,99.90
2019-06-07T06:12:53.614Z,99.90
2019-06-07T06:15:19.936Z,99.90
2019-06-07T06:17:50.047Z,99.90
2019-06-07T06:20:15.173Z,99.90
2019-06-07T06:22:46.023Z,99.90
2019-06-07T06:25:31.649Z,99.90
2019-06-07T06:30:09.305Z,98.60
2019-06-07T06:32:50.982Z,98.40
2019-06-07T06:35:06.998Z,96.50
2019-06-07T06:37:33.435Z,96.00
2019-06-07T06:39:59.775Z,97.10
2019-06-07T06:42:26.334Z,95.30
2019-06-07T06:44:54.163Z,95.90
2019-06-07T06:47:20.731Z,95.30
2019-06-07T06:49:50.015Z,95.00
2019-06-07T06:52:15.089Z,94.90
2019-06-07T06:54:46.572Z,94.20
2019-06-07T06:57:19.405Z,93.60
2019-06-07T06:59:39.673Z,93.20
2019-06-07T07:02:05.784Z,92.40
2019-06-07T07:04:32.530Z,92.90
2019-06-07T07:06:58.975Z,90.40
2019-06-07T07:09:26.656Z,90.60
2019-06-07T07:12:10.227Z,91.40
2019-06-07T07:14:21.102Z,90.80
2019-06-07T07:16:51.961Z,88.50
2019-06-07T07:19:15.491Z,83.20
2019-06-07T07:21:42.078Z,84.00
2019-06-07T07:24:21.278Z,82.50
2019-06-07T07:26:36.893Z,78.10
2019-06-07T07:29:03.618Z,77.90
2019-06-07T07:31:29.905Z,75.00
2019-06-07T07:34:28.266Z,77.60
2019-06-07T07:36:38.969Z,77.20
2019-06-07T07:39:00.646Z,76.10
2019-06-07T07:41:21.133Z,73.90
2019-06-07T07:43:54.320Z,74.90
2019-06-07T07:46:31.054Z,74.00
2019-06-07T07:48:43.761Z,73.00
2019-06-07T07:51:09.993Z,70.70
2019-06-07T07:53:48.285Z,68.40
2019-06-07T07:56:05.005Z,65.60
2019-06-07T07:58:31.752Z,64.10
2019-06-07T08:01:09.563Z,63.60
2019-06-07T08:03:26.135Z,63.60
2019-06-07T08:05:54.919Z,63.80
2019-06-07T08:08:20.620Z,61.30
2019-06-07T08:10:50.401Z,61.30
2019-06-07T08:13:24.547Z,59.90
2019-06-07T08:15:43.328Z,56.80
2019-06-07T08:18:09.564Z,53.50
2019-06-07T08:20:35.808Z,53.40
2019-06-07T08:23:02.477Z,53.40
2019-06-07T08:25:49.139Z,52.30
2019-06-07T08:28:15.605Z,47.80
2019-06-07T08:30:55.410Z,47.80
2019-06-07T08:33:25.219Z,43.50
2019-06-07T08:38:27.307Z,41.50
2019-06-07T08:40:35.070Z,41.60
2019-06-07T08:43:13.055Z,41.00
2019-06-07T08:45:29.733Z,36.50
2019-06-07T08:47:57.973Z,37.30
2019-06-07T08:50:24.810Z,35.20
2019-06-07T08:52:54.738Z,36.90
2019-06-07T08:55:20.189Z,35.60
2019-06-07T08:57:46.442Z,34.10
2019-06-07T09:02:41.305Z,33.60
2019-06-07T09:05:12.554Z,34.20
2019-06-07T09:07:36.978Z,32.00
2019-06-07T09:10:13.455Z,30.40
2019-06-07T09:12:34.372Z,29.90
2019-06-07T09:15:15.016Z,31.60
2019-06-07T09:17:28.775Z,30.00
2019-06-07T09:19:56.236Z,31.20
2019-06-07T09:22:23.566Z,32.40
2019-06-07T09:24:49.908Z,30.80
2019-06-07T09:27:16.641Z,32.20
2019-06-07T09:29:42.973Z,31.50
2019-06-07T09:32:12.101Z,30.80
2019-06-07T09:34:37.481Z,32.70
2019-06-07T09:37:54.432Z,30.50
2019-06-07T09:39:32.160Z,29.70
2019-06-07T09:42:00.527Z,28.40
2019-06-07T09:44:26.790Z,31.50
2019-06-07T09:47:12.814Z,30.70
2019-06-07T09:49:32.058Z,28.80
2019-06-07T09:51:49.578Z,28.90
2019-06-07T09:55:02.671Z,26.90
2019-06-07T09:56:44.163Z,26.50
2019-06-07T09:59:12.884Z,25.70
2019-06-07T10:01:38.541Z,26.40
2019-06-07T10:04:09.165Z,26.00
2019-06-07T10:06:33.120Z,27.20
2019-06-07T10:11:27.527Z,26.90
2019-06-07T10:13:53.757Z,27.60
2019-06-07T10:16:20.013Z,28.00
2019-06-07T10:18:46.359Z,26.50
2019-06-07T10:21:15.231Z,25.80
2019-06-07T10:23:40.748Z,24.40
2019-06-07T10:26:07.968Z,25.60
2019-06-07T10:28:34.329Z,26.30
2019-06-07T10:31:01.963Z,25.60
2019-06-07T10:33:28.417Z,25.80
2019-06-07T10:35:54.676Z,26.00
2019-06-07T10:38:20.926Z,27.80
2019-06-07T10:40:47.174Z,28.20
2019-06-07T10:43:14.597Z,29.10
2019-06-07T10:45:41.086Z,27.90
2019-06-07T10:48:07.694Z,27.50
2019-06-07T10:50:34.234Z,25.80
2019-06-07T10:53:00.475Z,24.70
2019-06-07T10:55:26.728Z,25.80
2019-06-07T10:57:52.963Z,25.60
2019-06-07T11:00:19.932Z,24.20
2019-06-07T11:02:46.314Z,23.10
2019-06-07T11:05:14.438Z,22.90
2019-06-07T11:07:41.417Z,22.20
2019-06-07T11:10:13.325Z,22.00
2019-06-07T11:12:36.399Z,23.50
2019-06-07T11:15:06.651Z,23.00
2019-06-07T11:17:33.185Z,20.90
2019-06-07T11:19:59.468Z,20.60
2019-06-07T11:22:25.714Z,19.40
2019-06-07T11:24:51.970Z,19.00
2019-06-07T11:27:19.100Z,19.30
2019-06-07T11:29:45.664Z,21.40
2019-06-07T11:32:12.591Z,23.10
2019-06-07T11:34:39.040Z,26.40
2019-06-07T11:37:07.397Z,25.30
2019-06-07T11:39:33.846Z,23.60
2019-06-07T11:42:00.493Z,21.90
2019-06-07T11:44:26.806Z,22.30
2019-06-07T11:46:53.216Z,22.10
2019-06-07T11:49:21.726Z,21.20
2019-06-07T11:51:47.650Z,20.60
2019-06-07T11:54:14.118Z,20.50
2019-06-07T11:56:40.445Z,20.10
2019-06-07T11:59:07.053Z,19.20
2019-06-07T12:01:33.414Z,19.40
2019-06-07T12:03:59.640Z,18.80
2019-06-07T12:06:25.888Z,20.00
2019-06-07T12:08:52.129Z,20.80
2019-06-07T12:11:18.561Z,23.30
2019-06-07T12:13:44.941Z,23.60
2019-06-07T12:16:11.307Z,25.80
2019-06-07T12:18:37.713Z,25.80
2019-06-07T12:21:04.244Z,24.30
2019-06-07T12:23:30.485Z,23.10
2019-06-07T12:25:56.717Z,22.90
2019-06-07T12:28:23.231Z,22.10
2019-06-07T12:30:49.573Z,21.80
2019-06-07T12:33:15.821Z,22.20
2019-06-07T12:35:42.062Z,22.80
2019-06-07T12:38:08.294Z,23.10
2019-06-07T12:40:34.643Z,24.00
2019-06-07T12:43:00.871Z,22.90
2019-06-07T12:45:42.923Z,22.80
2019-06-07T12:47:55.248Z,23.80
2019-06-07T12:50:21.777Z,23.60
2019-06-07T12:52:48.242Z,23.40
2019-06-07T12:55:16.102Z,23.30
2019-06-07T12:57:44.026Z,23.50
2019-06-07T13:00:13.952Z,23.70
2019-06-07T13:02:40.890Z,23.40
2019-06-07T13:05:08.861Z,22.10
2019-06-07T13:07:35.198Z,21.60
2019-06-07T13:10:02.636Z,23.40
2019-06-07T13:12:28.990Z,23.70
2019-06-07T13:14:55.338Z,24.40
2019-06-07T13:17:22.271Z,25.00
2019-06-07T13:19:48.796Z,25.10
2019-06-07T13:22:16.180Z,25.30
2019-06-07T13:24:42.518Z,25.00
2019-06-07T13:27:09.107Z,24.30
2019-06-07T13:29:35.332Z,24.00
2019-06-07T13:32:01.587Z,25.50
2019-06-07T13:34:28.120Z,25.00
2019-06-07T13:36:54.466Z,25.60
2019-06-07T13:39:23.338Z,25.90
2019-06-07T13:41:48.929Z,26.00
2019-06-07T13:44:16.610Z,25.70
2019-06-07T13:46:43.014Z,24.70
2019-06-07T13:49:09.359Z,25.00
2019-06-07T13:51:35.592Z,24.80
2019-06-07T13:54:02.126Z,23.80
2019-06-07T13:56:28.468Z,23.20
2019-06-07T13:58:54.697Z,23.40
2019-06-07T14:01:20.924Z,25.20
2019-06-07T14:03:47.170Z,25.80
2019-06-07T14:06:13.397Z,25.80
2019-06-07T14:08:39.634Z,25.70
2019-06-07T14:11:05.857Z,25.70
2019-06-07T14:13:32.198Z,24.00
2019-06-07T14:15:58.430Z,23.50
2019-06-07T14:18:24.657Z,24.10
2019-06-07T14:20:50.950Z,23.70
2019-06-07T14:23:17.228Z,24.50
2019-06-07T14:25:43.473Z,23.60
2019-06-07T14:28:11.797Z,23.30
2019-06-07T14:30:37.953Z,23.70
2019-06-07T14:33:04.282Z,23.10
2019-06-07T14:35:30.989Z,23.90
2019-06-07T14:37:57.353Z,24.50
2019-06-07T14:40:23.698Z,25.10
2019-06-07T14:42:49.927Z,25.00
2019-06-07T14:45:17.017Z,25.30
2019-06-07T14:47:43.264Z,25.30
2019-06-07T14:50:12.107Z,26.30
2019-06-07T14:52:38.355Z,26.60
2019-06-07T14:55:05.517Z,27.30
2019-06-07T14:57:32.990Z,28.30
2019-06-07T14:59:59.990Z,28.90
2019-06-07T15:02:26.390Z,29.10
2019-06-07T15:04:53.474Z,29.10
2019-06-07T15:07:19.718Z,29.20
2019-06-07T15:09:45.961Z,30.10
2019-06-07T15:12:24.635Z,32.80
2019-06-07T15:14:40.348Z,34.10
2019-06-07T15:17:06.621Z,33.50
2019-06-07T15:19:33.902Z,30.50
2019-06-07T15:22:01.409Z,30.50
2019-06-07T15:24:28.098Z,32.40
2019-06-07T15:26:54.442Z,32.20
2019-06-07T15:29:21.161Z,34.50
2019-06-07T15:31:47.478Z,35.50
2019-06-07T15:34:13.819Z,38.60
2019-06-07T15:36:40.049Z,46.30
2019-06-07T15:39:07.207Z,71.80
2019-06-07T15:41:35.020Z,99.90
2019-06-07T15:44:01.472Z,99.90
2019-06-07T15:46:27.769Z,99.90
2019-06-07T15:48:54.120Z,99.90
2019-06-07T15:51:20.354Z,99.90
2019-06-07T15:53:46.629Z,99.90
2019-06-07T15:56:12.878Z,99.90
2019-06-07T15:58:39.398Z,99.90
2019-06-07T16:01:05.877Z,99.90
2019-06-07T16:03:33.613Z,99.90
2019-06-07T16:06:00.528Z,99.90
2019-06-07T16:08:26.832Z,99.90
2019-06-07T16:10:53.087Z,99.90
2019-06-07T16:13:19.315Z,99.90
2019-06-07T16:15:45.810Z,99.90
2019-06-07T16:18:12.166Z,99.90
2019-06-07T16:20:39.547Z,99.90
2019-06-07T16:23:05.967Z,99.90
2019-06-07T16:25:32.308Z,99.90
2019-06-07T16:27:58.552Z,99.90
2019-06-07T16:30:24.789Z,99.90
2019-06-07T16:32:51.034Z,99.90
2019-06-07T16:35:17.270Z,99.90
2019-06-07T16:37:45.112Z,97.00
2019-06-07T16:40:13.596Z,92.80
2019-06-07T16:42:40.711Z,93.40
2019-06-07T16:45:08.741Z,93.60
2019-06-07T16:47:37.551Z,86.90
2019-06-07T16:50:07.112Z,77.40
2019-06-07T16:52:33.457Z,84.90
2019-06-07T16:55:00.092Z,69.90
2019-06-07T16:57:26.330Z,65.80
2019-06-07T16:59:52.580Z,66.30
2019-06-07T17:02:18.796Z,65.60
2019-06-07T17:04:45.630Z,67.30
2019-06-07T17:07:12.088Z,65.70
2019-06-07T17:09:38.340Z,64.60
2019-06-07T17:12:04.664Z,56.50
2019-06-07T17:14:31.272Z,61.70
2019-06-07T17:16:57.541Z,62.60
2019-06-07T17:19:23.790Z,59.40
2019-06-07T17:21:50.019Z,58.00
2019-06-07T17:24:16.605Z,58.50
2019-06-07T17:26:43.423Z,58.70
2019-06-07T17:29:09.777Z,58.60
2019-06-07T17:31:36.009Z,56.70
2019-06-07T17:34:02.281Z,55.00
2019-06-07T17:36:28.493Z,60.00
2019-06-07T17:38:54.998Z,57.30
2019-06-07T17:41:21.241Z,57.60
2019-06-07T17:43:55.659Z,54.60
2019-06-07T17:46:15.728Z,54.50
2019-06-07T17:48:41.960Z,53.40
2019-06-07T17:51:08.204Z,52.10
2019-06-07T17:53:34.533Z,53.80
2019-06-07T17:56:00.776Z,54.70
2019-06-07T17:58:27.004Z,52.90
2019-06-07T18:00:53.717Z,54.20
2019-06-07T18:03:40.046Z,52.80
2019-06-07T18:06:06.468Z,49.80
2019-06-07T18:08:33.712Z,48.50
2019-06-07T18:11:00.234Z,50.50
2019-06-07T18:13:26.474Z,50.00
2019-06-07T18:15:57.257Z,47.50
2019-06-07T18:18:20.940Z,46.60
2019-06-07T18:20:47.437Z,47.00
2019-06-07T18:23:14.258Z,45.00
2019-06-07T18:25:40.484Z,44.30
2019-06-07T18:28:06.830Z,43.00
2019-06-07T18:30:33.656Z,42.40
2019-06-07T18:32:59.998Z,42.20
2019-06-07T18:35:26.621Z,40.80
2019-06-07T18:37:53.112Z,38.80
2019-06-07T18:40:19.521Z,37.80
2019-06-07T18:42:47.041Z,36.80
2019-06-07T18:45:13.696Z,37.50
2019-06-07T18:47:40.330Z,37.70
2019-06-07T18:50:07.977Z,38.40
2019-06-07T18:52:36.225Z,37.60
2019-06-07T18:55:06.035Z,37.00
2019-06-07T18:57:32.273Z,36.90
2019-06-07T18:59:58.802Z,37.00
2019-06-07T19:02:25.300Z,37.70
2019-06-07T19:04:52.231Z,37.10
2019-06-07T19:07:18.700Z,37.20
2019-06-07T19:09:45.294Z,37.70
2019-06-07T19:12:11.622Z,37.80
2019-06-07T19:14:37.876Z,39.00
2019-06-07T19:17:04.115Z,39.80
2019-06-07T19:19:30.349Z,39.50
2019-06-07T19:21:56.581Z,39.50
2019-06-07T19:24:22.822Z,39.70
2019-06-07T19:26:50.410Z,40.10
2019-06-07T19:29:16.792Z,40.60
2019-06-07T19:31:43.024Z,41.00
2019-06-07T19:34:09.261Z,41.50
2019-06-07T19:36:48.038Z,42.60
2019-06-07T19:39:05.144Z,41.60
2019-06-07T19:41:31.586Z,41.40
2019-06-07T19:43:58.249Z,42.10
2019-06-07T19:46:24.664Z,41.90
2019-06-07T19:48:51.066Z,41.50
2019-06-07T19:51:20.387Z,41.70
2019-06-07T19:53:46.823Z,41.80
2019-06-07T19:56:13.365Z,40.60
2019-06-07T19:58:39.701Z,40.90
2019-06-07T20:01:06.040Z,41.80
2019-06-07T20:03:32.269Z,39.50
2019-06-07T20:05:58.506Z,40.90
2019-06-07T20:08:24.753Z,40.30
2019-06-07T20:10:50.989Z,41.00
2019-06-07T20:13:19.118Z,41.50
2019-06-07T20:15:45.778Z,41.00
2019-06-07T20:18:12.008Z,41.90
2019-06-07T20:20:38.256Z,42.30
2019-06-07T20:23:05.260Z,42.10
2019-06-07T20:25:31.634Z,43.50
2019-06-07T20:27:59.456Z,43.20
2019-06-07T20:30:26.018Z,42.90
2019-06-07T20:32:52.608Z,44.10
2019-06-07T20:35:18.893Z,45.50
2019-06-07T20:37:45.148Z,44.30
2019-06-07T20:40:23.544Z,45.90
2019-06-07T20:42:40.032Z,45.50
2019-06-07T20:45:08.106Z,46.80
2019-06-07T20:47:34.626Z,46.60
2019-06-07T20:50:02.280Z,47.70
2019-06-07T20:52:28.801Z,49.10
2019-06-07T20:54:55.024Z,47.90
2019-06-07T20:57:21.273Z,48.10
2019-06-07T20:59:47.500Z,49.30
2019-06-07T21:02:13.742Z,48.80
2019-06-07T21:04:39.969Z,48.60
2019-06-07T21:07:08.023Z,49.30
2019-06-07T21:09:34.458Z,49.50
2019-06-07T21:12:01.658Z,50.10
2019-06-07T21:14:28.037Z,49.70
2019-06-07T21:16:54.381Z,49.80
2019-06-07T21:19:20.621Z,50.50
2019-06-07T21:21:47.141Z,49.90
2019-06-07T21:24:13.493Z,50.90
2019-06-07T21:26:39.733Z,50.90
2019-06-07T21:29:06.991Z,50.20
2019-06-07T21:31:33.496Z,49.70
2019-06-07T21:33:59.780Z,50.00
2019-06-07T21:36:26.357Z,48.00
2019-06-07T21:38:52.605Z,47.90
2019-06-07T21:41:18.836Z,49.10
2019-06-07T21:43:45.103Z,48.50
2019-06-07T21:46:19.646Z,48.50
2019-06-07T21:48:39.672Z,48.70
2019-06-07T21:51:06.408Z,48.30
2019-06-07T21:53:32.953Z,49.00
2019-06-07T21:55:59.297Z,49.00
2019-06-07T21:58:25.538Z,48.60
2019-06-07T22:00:56.019Z,49.50
2019-06-07T22:03:22.269Z,50.10
2019-06-07T22:05:49.355Z,49.20
2019-06-07T22:08:15.843Z,50.30
2019-06-07T22:10:42.186Z,51.90
2019-06-07T22:13:08.423Z,52.00
2019-06-07T22:15:37.422Z,52.00
2019-06-07T22:18:04.367Z,51.40
2019-06-07T22:20:31.184Z,51.20
2019-06-07T22:22:57.517Z,50.40
2019-06-07T22:25:23.762Z,50.40
2019-06-07T22:27:50.097Z,51.50
2019-06-07T22:30:16.637Z,51.20
2019-06-07T22:32:42.863Z,51.70
2019-06-07T22:35:09.165Z,51.40
2019-06-07T22:37:35.705Z,52.30
2019-06-07T22:40:04.437Z,54.00
2019-06-07T22:42:30.673Z,53.40
2019-06-07T22:44:56.921Z,53.80
2019-06-07T22:47:23.133Z,52.90
2019-06-07T22:49:49.381Z,53.50
2019-06-07T22:52:17.300Z,53.40
2019-06-07T22:54:44.067Z,53.30
2019-06-07T22:57:12.219Z,53.30
2019-06-07T22:59:38.460Z,53.20
2019-06-07T23:02:04.683Z,53.90
2019-06-07T23:04:30.914Z,53.20
2019-06-07T23:06:57.147Z,53.30
2019-06-07T23:09:23.629Z,53.30
2019-06-07T23:11:49.872Z,53.60
2019-06-07T23:14:17.419Z,53.70
2019-06-07T23:16:55.011Z,52.20
2019-06-07T23:19:12.089Z,52.00
2019-06-07T23:21:38.320Z,50.00
2019-06-07T23:24:04.666Z,50.70
2019-06-07T23:26:30.900Z,50.30
2019-06-07T23:28:57.137Z,50.90
2019-06-07T23:31:23.373Z,50.70
2019-06-07T23:33:49.614Z,49.90
2019-06-07T23:36:17.218Z,49.30
2019-06-07T23:38:43.632Z,49.70
2019-06-07T23:41:11.363Z,50.10
2019-06-07T23:43:38.218Z,50.80
2019-06-07T23:46:04.444Z,50.40
2019-06-07T23:48:31.194Z,50.50
2019-06-07T23:50:57.417Z,50.40
2019-06-07T23:53:23.937Z,49.60
2019-06-07T23:55:50.176Z,50.80
2019-06-07T23:58:16.412Z,51.10
